BAW586M EGLL-LIMC
Flight info
| Callsign | BAW586M |
|---|---|
| Flight time | 1h 49m |
| Altitude | 37000 |
| Route | MODMI M185 MID L612 BOGNA UL612 VEULE DCT TEPRI UN491 POGZI DCT GELTA DCT LUVAL DCT SHARA DCT DEVDI DCT BASGO/N0441F290 Z424 AKASU/N0373F190 Z424 RIXUV |
| Aircraft | A319/M-SDE3FGHIRWY/LB1 |
Departure
| Time | 2026-05-05 19:30 |
|---|---|
| Airport | London Heathrow Airport (EGLL) |
Arrival
| Time | 2026-05-05 21:19 |
|---|---|
| Airport | Milan Malpensa International Airport (LIMC) |
| Time | Latitude | Longitude | Altitude | Speed | Heading |
|---|---|---|---|---|---|
| 2026-05-05 18:55 | 51.47188 | -0.48591 | 88 ft | 0 kts | 269° |
| 2026-05-05 19:12 | 51.47188 | -0.48590 | 86 ft | 1 kts | 269° |
| 2026-05-05 19:12 | 51.47188 | -0.48551 | 86 ft | 4 kts | 269° |
| 2026-05-05 19:13 | 51.47188 | -0.48517 | 86 ft | 4 kts | 264° |
| 2026-05-05 19:13 | 51.47196 | -0.48481 | 89 ft | 4 kts | 213° |
| 2026-05-05 19:13 | 51.47218 | -0.48473 | 89 ft | 4 kts | 179° |
| 2026-05-05 19:13 | 51.47226 | -0.48473 | 86 ft | 0 kts | 179° |
| 2026-05-05 19:16 | 51.47225 | -0.48473 | 86 ft | 1 kts | 179° |
| 2026-05-05 19:16 | 51.47217 | -0.48473 | 89 ft | 2 kts | 179° |
| 2026-05-05 19:16 | 51.47193 | -0.48472 | 89 ft | 5 kts | 179° |
| 2026-05-05 19:17 | 51.47154 | -0.48472 | 86 ft | 6 kts | 180° |
| 2026-05-05 19:17 | 51.47104 | -0.48472 | 86 ft | 8 kts | 180° |
| 2026-05-05 19:17 | 51.47043 | -0.48472 | 86 ft | 10 kts | 180° |
| 2026-05-05 19:17 | 51.46971 | -0.48471 | 86 ft | 11 kts | 179° |
| 2026-05-05 19:18 | 51.46887 | -0.48470 | 88 ft | 13 kts | 179° |
| 2026-05-05 19:18 | 51.46826 | -0.48469 | 86 ft | 0 kts | 179° |
| 2026-05-05 19:23 | 51.46824 | -0.48469 | 86 ft | 1 kts | 179° |
| 2026-05-05 19:24 | 51.46807 | -0.48469 | 88 ft | 4 kts | 179° |
| 2026-05-05 19:24 | 51.46761 | -0.48468 | 86 ft | 8 kts | 180° |
| 2026-05-05 19:24 | 51.46699 | -0.48468 | 86 ft | 10 kts | 179° |
| 2026-05-05 19:24 | 51.46624 | -0.48467 | 86 ft | 10 kts | 180° |
| 2026-05-05 19:25 | 51.46597 | -0.48467 | 86 ft | 1 kts | 180° |
| 2026-05-05 19:25 | 51.46594 | -0.48467 | 86 ft | 2 kts | 180° |
| 2026-05-05 19:25 | 51.46564 | -0.48467 | 86 ft | 8 kts | 180° |
| 2026-05-05 19:25 | 51.46498 | -0.48465 | 86 ft | 11 kts | 171° |
| 2026-05-05 19:26 | 51.46479 | -0.48407 | 87 ft | 0 kts | 88° |
| 2026-05-05 19:29 | 51.46479 | -0.48368 | 88 ft | 22 kts | 89° |
| 2026-05-05 19:29 | 51.46481 | -0.47745 | 86 ft | 87 kts | 89° |
| 2026-05-05 19:29 | 51.46486 | -0.46463 | 91 ft | 140 kts | 89° |
| 2026-05-05 19:29 | 51.46492 | -0.44713 | 362 ft | 160 kts | 88° |
| 2026-05-05 19:30 | 51.46512 | -0.42929 | 1019 ft | 160 kts | 87° |
| 2026-05-05 19:30 | 51.46350 | -0.41136 | 1471 ft | 175 kts | 114° |
| 2026-05-05 19:30 | 51.45617 | -0.39432 | 1785 ft | 198 kts | 124° |
| 2026-05-05 19:30 | 51.44591 | -0.37744 | 2064 ft | 229 kts | 150° |
| 2026-05-05 19:31 | 51.43013 | -0.36818 | 2575 ft | 254 kts | 160° |
| 2026-05-05 19:31 | 51.41278 | -0.35958 | 3355 ft | 265 kts | 164° |
| 2026-05-05 19:31 | 51.39412 | -0.35963 | 4232 ft | 276 kts | 196° |
| 2026-05-05 19:31 | 51.37682 | -0.37340 | 4988 ft | 281 kts | 210° |
| 2026-05-05 19:32 | 51.35973 | -0.38820 | 5249 ft | 278 kts | 207° |
| 2026-05-05 19:32 | 51.34241 | -0.40199 | 5504 ft | 279 kts | 206° |
| 2026-05-05 19:32 | 51.32491 | -0.41535 | 5758 ft | 280 kts | 206° |
| 2026-05-05 19:32 | 51.30717 | -0.42841 | 6016 ft | 282 kts | 201° |
| 2026-05-05 19:33 | 51.28776 | -0.43456 | 6780 ft | 286 kts | 180° |
| 2026-05-05 19:33 | 51.27465 | -0.43189 | 7357 ft | 288 kts | 166° |
| 2026-05-05 19:33 | 51.24843 | -0.42202 | 8576 ft | 292 kts | 166° |
| 2026-05-05 19:33 | 51.22862 | -0.41445 | 9495 ft | 293 kts | 166° |
| 2026-05-05 19:34 | 51.21545 | -0.40936 | 10071 ft | 295 kts | 166° |
| 2026-05-05 19:34 | 51.19491 | -0.40132 | 10449 ft | 316 kts | 165° |
| 2026-05-05 19:34 | 51.17347 | -0.38901 | 10646 ft | 339 kts | 158° |
| 2026-05-05 19:35 | 51.12728 | -0.35758 | 10965 ft | 380 kts | 156° |
| 2026-05-05 19:35 | 51.10283 | -0.34041 | 11490 ft | 387 kts | 156° |
| 2026-05-05 19:35 | 51.07807 | -0.32305 | 12137 ft | 390 kts | 156° |
| 2026-05-05 19:35 | 51.05309 | -0.30568 | 12793 ft | 394 kts | 156° |
| 2026-05-05 19:36 | 51.02785 | -0.28828 | 13463 ft | 397 kts | 156° |
| 2026-05-05 19:36 | 51.00245 | -0.27090 | 14096 ft | 400 kts | 156° |
| 2026-05-05 19:36 | 50.97677 | -0.25340 | 14678 ft | 403 kts | 156° |
| 2026-05-05 19:36 | 50.95092 | -0.23581 | 15285 ft | 406 kts | 156° |
| 2026-05-05 19:37 | 50.92520 | -0.21830 | 15870 ft | 409 kts | 156° |
| 2026-05-05 19:37 | 50.89895 | -0.20041 | 16437 ft | 413 kts | 156° |
| 2026-05-05 19:37 | 50.87249 | -0.18240 | 17047 ft | 416 kts | 156° |
| 2026-05-05 19:37 | 50.84578 | -0.16424 | 17597 ft | 419 kts | 156° |
| 2026-05-05 19:38 | 50.81883 | -0.14598 | 18143 ft | 423 kts | 156° |
| 2026-05-05 19:38 | 50.79173 | -0.12765 | 18616 ft | 426 kts | 156° |
| 2026-05-05 19:38 | 50.76442 | -0.10917 | 19071 ft | 429 kts | 156° |
| 2026-05-05 19:38 | 50.73689 | -0.09053 | 19524 ft | 432 kts | 156° |
| 2026-05-05 19:39 | 50.70915 | -0.07177 | 19984 ft | 435 kts | 156° |
| 2026-05-05 19:39 | 50.68125 | -0.05292 | 20417 ft | 438 kts | 156° |
| 2026-05-05 19:39 | 50.65317 | -0.03398 | 20843 ft | 441 kts | 156° |
| 2026-05-05 19:39 | 50.62490 | -0.01491 | 21268 ft | 443 kts | 156° |
| 2026-05-05 19:40 | 50.59645 | 0.00421 | 21665 ft | 446 kts | 156° |
| 2026-05-05 19:40 | 50.56780 | 0.02336 | 22054 ft | 449 kts | 156° |
| 2026-05-05 19:40 | 50.53898 | 0.04263 | 22418 ft | 452 kts | 156° |
| 2026-05-05 19:40 | 50.51000 | 0.06198 | 22807 ft | 453 kts | 156° |
| 2026-05-05 19:41 | 50.48090 | 0.08139 | 23202 ft | 456 kts | 156° |
| 2026-05-05 19:41 | 50.45164 | 0.10093 | 23548 ft | 458 kts | 156° |
| 2026-05-05 19:41 | 50.42220 | 0.12056 | 23852 ft | 461 kts | 156° |
| 2026-05-05 19:41 | 50.39267 | 0.14021 | 24177 ft | 462 kts | 156° |
| 2026-05-05 19:42 | 50.36305 | 0.15990 | 24535 ft | 462 kts | 156° |
| 2026-05-05 19:42 | 50.33340 | 0.17959 | 24854 ft | 463 kts | 156° |
| 2026-05-05 19:42 | 50.30365 | 0.19931 | 25180 ft | 464 kts | 156° |
| 2026-05-05 19:42 | 50.27386 | 0.21902 | 25495 ft | 465 kts | 156° |
| 2026-05-05 19:43 | 50.24397 | 0.23871 | 25825 ft | 466 kts | 156° |
| 2026-05-05 19:43 | 50.21418 | 0.25872 | 26127 ft | 467 kts | 154° |
| 2026-05-05 19:43 | 50.18593 | 0.28364 | 26427 ft | 467 kts | 146° |
| 2026-05-05 19:43 | 50.15876 | 0.31166 | 26731 ft | 468 kts | 146° |
| 2026-05-05 19:44 | 50.13167 | 0.33956 | 27177 ft | 465 kts | 146° |
| 2026-05-05 19:44 | 50.10480 | 0.36720 | 27651 ft | 462 kts | 146° |
| 2026-05-05 19:44 | 50.07802 | 0.39467 | 28100 ft | 460 kts | 146° |
| 2026-05-05 19:44 | 50.05126 | 0.42202 | 28526 ft | 459 kts | 146° |
| 2026-05-05 19:45 | 50.02462 | 0.44918 | 29031 ft | 456 kts | 146° |
| 2026-05-05 19:45 | 49.99821 | 0.47612 | 29525 ft | 453 kts | 146° |
| 2026-05-05 19:45 | 49.97187 | 0.50295 | 29994 ft | 452 kts | 146° |
| 2026-05-05 19:45 | 49.94566 | 0.52966 | 30411 ft | 450 kts | 146° |
| 2026-05-05 19:46 | 49.91956 | 0.55621 | 30838 ft | 448 kts | 146° |
| 2026-05-05 19:46 | 49.89357 | 0.58257 | 31259 ft | 446 kts | 146° |
| 2026-05-05 19:46 | 49.86791 | 0.60934 | 31670 ft | 443 kts | 142° |
| 2026-05-05 19:46 | 49.84501 | 0.64009 | 32087 ft | 440 kts | 134° |
| 2026-05-05 19:47 | 49.82430 | 0.67501 | 32529 ft | 438 kts | 131° |
| 2026-05-05 19:47 | 49.80388 | 0.70986 | 32958 ft | 436 kts | 131° |
| 2026-05-05 19:47 | 49.78345 | 0.74455 | 33376 ft | 435 kts | 132° |
| 2026-05-05 19:47 | 49.76311 | 0.77897 | 33812 ft | 433 kts | 132° |
| 2026-05-05 19:48 | 49.74273 | 0.81335 | 34143 ft | 433 kts | 132° |
| 2026-05-05 19:48 | 49.72238 | 0.84764 | 34377 ft | 434 kts | 132° |
| 2026-05-05 19:48 | 49.70194 | 0.88201 | 34616 ft | 435 kts | 132° |
| 2026-05-05 19:48 | 49.68145 | 0.91642 | 34847 ft | 436 kts | 132° |
| 2026-05-05 19:49 | 49.66090 | 0.95094 | 35133 ft | 437 kts | 133° |
| 2026-05-05 19:49 | 49.64033 | 0.98551 | 35381 ft | 438 kts | 133° |
| 2026-05-05 19:49 | 49.61973 | 1.02016 | 35609 ft | 439 kts | 133° |
| 2026-05-05 19:49 | 49.59904 | 1.05482 | 35861 ft | 440 kts | 133° |
| 2026-05-05 19:50 | 49.57829 | 1.08953 | 36113 ft | 440 kts | 133° |
| 2026-05-05 19:50 | 49.55753 | 1.12421 | 36377 ft | 441 kts | 133° |
| 2026-05-05 19:50 | 49.53671 | 1.15898 | 36590 ft | 442 kts | 133° |
| 2026-05-05 19:50 | 49.51579 | 1.19382 | 36785 ft | 444 kts | 133° |
| 2026-05-05 19:51 | 49.49505 | 1.22833 | 36867 ft | 445 kts | 134° |
| 2026-05-05 19:51 | 49.45303 | 1.29813 | 36862 ft | 445 kts | 134° |
| 2026-05-05 19:52 | 49.41099 | 1.36785 | 36868 ft | 444 kts | 134° |
| 2026-05-05 19:52 | 49.36889 | 1.43739 | 36866 ft | 444 kts | 134° |
| 2026-05-05 19:53 | 49.32672 | 1.50669 | 36872 ft | 444 kts | 134° |
| 2026-05-05 19:53 | 49.28458 | 1.57580 | 36877 ft | 444 kts | 134° |
| 2026-05-05 19:54 | 49.24245 | 1.64493 | 36863 ft | 444 kts | 134° |
| 2026-05-05 19:54 | 49.20023 | 1.71382 | 36861 ft | 444 kts | 134° |
| 2026-05-05 19:55 | 49.15800 | 1.78262 | 36851 ft | 444 kts | 134° |
| 2026-05-05 19:55 | 49.11578 | 1.85130 | 36857 ft | 443 kts | 134° |
| 2026-05-05 19:56 | 49.07355 | 1.91976 | 36832 ft | 443 kts | 134° |
| 2026-05-05 19:56 | 49.03128 | 1.98812 | 36832 ft | 443 kts | 134° |
| 2026-05-05 19:57 | 48.98893 | 2.05635 | 36835 ft | 443 kts | 134° |
| 2026-05-05 19:57 | 48.94653 | 2.12449 | 36837 ft | 443 kts | 134° |
| 2026-05-05 19:58 | 48.90411 | 2.19253 | 36831 ft | 443 kts | 134° |
| 2026-05-05 19:58 | 48.86163 | 2.26044 | 36826 ft | 444 kts | 134° |
| 2026-05-05 19:59 | 48.81902 | 2.32836 | 36826 ft | 444 kts | 134° |
| 2026-05-05 19:59 | 48.77637 | 2.39630 | 36821 ft | 445 kts | 134° |
| 2026-05-05 20:00 | 48.73367 | 2.46415 | 36823 ft | 445 kts | 134° |
| 2026-05-05 20:00 | 48.71490 | 2.50124 | 36824 ft | 446 kts | 120° |
| 2026-05-05 20:00 | 48.70313 | 2.54466 | 36827 ft | 448 kts | 105° |
| 2026-05-05 20:01 | 48.69074 | 2.63717 | 36819 ft | 449 kts | 103° |
| 2026-05-05 20:01 | 48.67644 | 2.72919 | 36816 ft | 449 kts | 106° |
| 2026-05-05 20:02 | 48.66012 | 2.82040 | 36808 ft | 450 kts | 107° |
| 2026-05-05 20:02 | 48.64387 | 2.91118 | 36811 ft | 450 kts | 106° |
| 2026-05-05 20:03 | 48.62790 | 3.00276 | 36811 ft | 451 kts | 106° |
| 2026-05-05 20:03 | 48.61215 | 3.09453 | 36810 ft | 451 kts | 106° |
| 2026-05-05 20:04 | 48.59628 | 3.18635 | 36804 ft | 452 kts | 106° |
| 2026-05-05 20:04 | 48.58025 | 3.27834 | 36797 ft | 454 kts | 106° |
| 2026-05-05 20:05 | 48.56408 | 3.37048 | 36799 ft | 455 kts | 107° |
| 2026-05-05 20:05 | 48.54776 | 3.46259 | 36806 ft | 454 kts | 107° |
| 2026-05-05 20:06 | 48.53130 | 3.55458 | 36815 ft | 454 kts | 107° |
| 2026-05-05 20:06 | 48.51483 | 3.64639 | 36819 ft | 453 kts | 107° |
| 2026-05-05 20:07 | 48.49834 | 3.73816 | 36826 ft | 453 kts | 107° |
| 2026-05-05 20:07 | 48.48183 | 3.82984 | 36824 ft | 453 kts | 107° |
| 2026-05-05 20:08 | 48.46533 | 3.92154 | 36826 ft | 453 kts | 107° |
| 2026-05-05 20:08 | 48.44862 | 4.01302 | 36824 ft | 453 kts | 107° |
| 2026-05-05 20:09 | 48.43179 | 4.10446 | 36826 ft | 453 kts | 107° |
| 2026-05-05 20:09 | 48.41499 | 4.19585 | 36826 ft | 453 kts | 107° |
| 2026-05-05 20:10 | 48.39813 | 4.28726 | 36825 ft | 453 kts | 107° |
| 2026-05-05 20:10 | 48.38110 | 4.37856 | 36819 ft | 453 kts | 108° |
| 2026-05-05 20:11 | 48.36397 | 4.46979 | 36822 ft | 453 kts | 108° |
| 2026-05-05 20:11 | 48.34682 | 4.56100 | 36825 ft | 453 kts | 108° |
| 2026-05-05 20:12 | 48.32963 | 4.65217 | 36827 ft | 453 kts | 108° |
| 2026-05-05 20:12 | 48.31241 | 4.74330 | 36813 ft | 453 kts | 108° |
| 2026-05-05 20:13 | 48.29502 | 4.83433 | 36822 ft | 454 kts | 108° |
| 2026-05-05 20:13 | 48.27753 | 4.92536 | 36825 ft | 454 kts | 108° |
| 2026-05-05 20:14 | 48.26016 | 5.01584 | 36833 ft | 454 kts | 108° |
| 2026-05-05 20:14 | 48.24257 | 5.10684 | 36831 ft | 454 kts | 108° |
| 2026-05-05 20:15 | 48.22482 | 5.19778 | 36831 ft | 454 kts | 109° |
| 2026-05-05 20:15 | 48.20708 | 5.28869 | 36832 ft | 454 kts | 109° |
| 2026-05-05 20:16 | 48.18929 | 5.37957 | 36837 ft | 454 kts | 109° |
| 2026-05-05 20:16 | 48.17141 | 5.47036 | 36840 ft | 454 kts | 109° |
| 2026-05-05 20:17 | 48.15343 | 5.56106 | 36826 ft | 455 kts | 109° |
| 2026-05-05 20:17 | 48.13535 | 5.65185 | 36835 ft | 455 kts | 109° |
| 2026-05-05 20:18 | 48.11727 | 5.74270 | 36838 ft | 456 kts | 109° |
| 2026-05-05 20:18 | 48.09908 | 5.83352 | 36847 ft | 456 kts | 109° |
| 2026-05-05 20:19 | 48.08075 | 5.92431 | 36858 ft | 456 kts | 109° |
| 2026-05-05 20:19 | 48.06535 | 6.00039 | 36847 ft | 456 kts | 110° |
| 2026-05-05 20:20 | 48.04698 | 6.09054 | 36844 ft | 457 kts | 110° |
| 2026-05-05 20:20 | 48.02842 | 6.18131 | 36855 ft | 457 kts | 110° |
| 2026-05-05 20:21 | 48.00965 | 6.27273 | 36858 ft | 457 kts | 110° |
| 2026-05-05 20:21 | 47.99107 | 6.36290 | 36867 ft | 458 kts | 110° |
| 2026-05-05 20:22 | 47.97229 | 6.45373 | 36854 ft | 458 kts | 110° |
| 2026-05-05 20:22 | 47.95332 | 6.54462 | 36866 ft | 458 kts | 110° |
| 2026-05-05 20:23 | 47.93435 | 6.63541 | 36871 ft | 459 kts | 110° |
| 2026-05-05 20:23 | 47.91532 | 6.72617 | 36874 ft | 459 kts | 110° |
| 2026-05-05 20:24 | 47.89622 | 6.81686 | 36862 ft | 459 kts | 110° |
| 2026-05-05 20:24 | 47.87701 | 6.90752 | 36867 ft | 459 kts | 111° |
| 2026-05-05 20:25 | 47.85768 | 6.99799 | 36863 ft | 459 kts | 111° |
| 2026-05-05 20:25 | 47.83829 | 7.08848 | 36873 ft | 459 kts | 111° |
| 2026-05-05 20:26 | 47.81890 | 7.17894 | 36877 ft | 459 kts | 111° |
| 2026-05-05 20:26 | 47.79943 | 7.26934 | 36866 ft | 459 kts | 111° |
| 2026-05-05 20:27 | 47.77985 | 7.35966 | 36870 ft | 459 kts | 111° |
| 2026-05-05 20:27 | 47.75986 | 7.44972 | 36870 ft | 457 kts | 116° |
| 2026-05-05 20:28 | 47.72718 | 7.52890 | 36880 ft | 446 kts | 136° |
| 2026-05-05 20:28 | 47.67935 | 7.58522 | 36859 ft | 436 kts | 156° |
| 2026-05-05 20:29 | 47.62435 | 7.62191 | 36869 ft | 433 kts | 160° |
| 2026-05-05 20:29 | 47.43414 | 7.74460 | 36892 ft | 433 kts | 160° |
| 2026-05-05 20:30 | 47.23443 | 7.87224 | 36909 ft | 433 kts | 160° |
| 2026-05-05 20:30 | 47.17906 | 7.90740 | 36906 ft | 433 kts | 161° |
| 2026-05-05 20:31 | 47.12373 | 7.94247 | 36917 ft | 433 kts | 161° |
| 2026-05-05 20:31 | 47.06907 | 7.97709 | 36919 ft | 417 kts | 161° |
| 2026-05-05 20:31 | 47.04314 | 7.99352 | 36919 ft | 405 kts | 161° |
| 2026-05-05 20:32 | 47.01766 | 8.00967 | 36933 ft | 393 kts | 161° |
| 2026-05-05 20:32 | 46.96835 | 8.04078 | 36939 ft | 382 kts | 161° |
| 2026-05-05 20:33 | 46.91957 | 8.07135 | 36941 ft | 381 kts | 161° |
| 2026-05-05 20:33 | 46.87090 | 8.10184 | 36940 ft | 381 kts | 162° |
| 2026-05-05 20:34 | 46.82214 | 8.13238 | 36883 ft | 382 kts | 161° |
| 2026-05-05 20:34 | 46.79771 | 8.14771 | 36622 ft | 382 kts | 162° |
| 2026-05-05 20:34 | 46.77333 | 8.16300 | 36343 ft | 381 kts | 163° |
| 2026-05-05 20:34 | 46.74903 | 8.17817 | 36090 ft | 380 kts | 163° |
| 2026-05-05 20:35 | 46.72475 | 8.19327 | 35840 ft | 379 kts | 163° |
| 2026-05-05 20:35 | 46.70052 | 8.20833 | 35597 ft | 379 kts | 163° |
| 2026-05-05 20:35 | 46.67633 | 8.22335 | 35345 ft | 378 kts | 163° |
| 2026-05-05 20:35 | 46.65218 | 8.23833 | 35089 ft | 376 kts | 164° |
| 2026-05-05 20:36 | 46.62811 | 8.25327 | 34925 ft | 375 kts | 164° |
| 2026-05-05 20:36 | 46.58130 | 8.28250 | 34946 ft | 361 kts | 165° |
| 2026-05-05 20:37 | 46.53527 | 8.31099 | 34948 ft | 359 kts | 165° |
| 2026-05-05 20:37 | 46.48934 | 8.33931 | 34959 ft | 358 kts | 165° |
| 2026-05-05 20:38 | 46.44345 | 8.36757 | 34958 ft | 358 kts | 165° |
| 2026-05-05 20:38 | 46.39757 | 8.39573 | 34577 ft | 357 kts | 165° |
| 2026-05-05 20:38 | 46.37472 | 8.40978 | 34227 ft | 357 kts | 165° |
| 2026-05-05 20:39 | 46.35187 | 8.42383 | 33863 ft | 356 kts | 165° |
| 2026-05-05 20:39 | 46.32909 | 8.43782 | 33383 ft | 356 kts | 166° |
| 2026-05-05 20:39 | 46.30627 | 8.45181 | 32914 ft | 356 kts | 166° |
| 2026-05-05 20:39 | 46.28330 | 8.46459 | 32413 ft | 352 kts | 171° |
| 2026-05-05 20:40 | 46.25976 | 8.47313 | 31935 ft | 346 kts | 178° |
| 2026-05-05 20:40 | 46.23603 | 8.47746 | 31444 ft | 343 kts | 181° |
| 2026-05-05 20:40 | 46.21225 | 8.48073 | 30989 ft | 345 kts | 181° |
| 2026-05-05 20:40 | 46.18840 | 8.48409 | 30575 ft | 341 kts | 180° |
| 2026-05-05 20:41 | 46.16509 | 8.48751 | 30458 ft | 333 kts | 180° |
| 2026-05-05 20:41 | 46.14234 | 8.49088 | 30335 ft | 325 kts | 181° |
| 2026-05-05 20:41 | 46.12015 | 8.49467 | 30187 ft | 319 kts | 177° |
| 2026-05-05 20:41 | 46.09858 | 8.50194 | 29815 ft | 320 kts | 170° |
| 2026-05-05 20:42 | 46.07744 | 8.51285 | 29233 ft | 325 kts | 167° |
| 2026-05-05 20:42 | 46.05637 | 8.52426 | 28802 ft | 322 kts | 167° |
| 2026-05-05 20:42 | 46.03582 | 8.53540 | 28470 ft | 318 kts | 166° |
| 2026-05-05 20:42 | 46.01517 | 8.54657 | 27989 ft | 317 kts | 166° |
| 2026-05-05 20:43 | 45.99461 | 8.55765 | 27668 ft | 312 kts | 166° |
| 2026-05-05 20:43 | 45.97447 | 8.56852 | 27346 ft | 307 kts | 166° |
| 2026-05-05 20:43 | 45.95447 | 8.57925 | 26986 ft | 306 kts | 166° |
| 2026-05-05 20:43 | 45.93459 | 8.58989 | 26723 ft | 303 kts | 166° |
| 2026-05-05 20:44 | 45.91484 | 8.60006 | 26452 ft | 299 kts | 171° |
| 2026-05-05 20:44 | 45.89469 | 8.60493 | 26064 ft | 291 kts | 183° |
| 2026-05-05 20:44 | 45.87466 | 8.60317 | 25651 ft | 287 kts | 194° |
| 2026-05-05 20:44 | 45.85510 | 8.59745 | 25228 ft | 288 kts | 194° |
| 2026-05-05 20:45 | 45.81618 | 8.58624 | 24694 ft | 281 kts | 194° |
| 2026-05-05 20:45 | 45.79710 | 8.58077 | 24453 ft | 279 kts | 194° |
| 2026-05-05 20:45 | 45.77811 | 8.57530 | 24218 ft | 278 kts | 194° |
| 2026-05-05 20:46 | 45.75918 | 8.56986 | 24041 ft | 275 kts | 194° |
| 2026-05-05 20:46 | 45.74012 | 8.56728 | 23994 ft | 277 kts | 182° |
| 2026-05-05 20:46 | 45.72084 | 8.57037 | 23999 ft | 280 kts | 177° |
| 2026-05-05 20:46 | 45.70154 | 8.57412 | 24000 ft | 280 kts | 177° |
| 2026-05-05 20:47 | 45.68227 | 8.57777 | 23999 ft | 280 kts | 177° |
| 2026-05-05 20:47 | 45.66297 | 8.58138 | 23954 ft | 279 kts | 178° |
| 2026-05-05 20:47 | 45.64372 | 8.58498 | 23609 ft | 279 kts | 178° |
| 2026-05-05 20:47 | 45.62443 | 8.58863 | 23232 ft | 279 kts | 177° |
| 2026-05-05 20:48 | 45.60548 | 8.59229 | 23096 ft | 271 kts | 177° |
| 2026-05-05 20:48 | 45.58707 | 8.59586 | 22952 ft | 263 kts | 178° |
| 2026-05-05 20:48 | 45.56920 | 8.59714 | 22712 ft | 252 kts | 193° |
| 2026-05-05 20:48 | 45.55401 | 8.58651 | 22383 ft | 245 kts | 226° |
| 2026-05-05 20:49 | 45.54782 | 8.56425 | 22012 ft | 254 kts | 264° |
| 2026-05-05 20:49 | 45.55315 | 8.53957 | 21582 ft | 275 kts | 299° |
| 2026-05-05 20:49 | 45.56848 | 8.52214 | 21194 ft | 295 kts | 334° |
| 2026-05-05 20:49 | 45.58908 | 8.51877 | 20831 ft | 308 kts | 8° |
| 2026-05-05 20:50 | 45.60855 | 8.53118 | 20441 ft | 310 kts | 42° |
| 2026-05-05 20:50 | 45.62099 | 8.55574 | 19931 ft | 305 kts | 75° |
| 2026-05-05 20:50 | 45.62505 | 8.58507 | 19472 ft | 299 kts | 94° |
| 2026-05-05 20:50 | 45.62409 | 8.61441 | 19044 ft | 296 kts | 99° |
| 2026-05-05 20:51 | 45.62433 | 8.64396 | 18625 ft | 300 kts | 86° |
| 2026-05-05 20:51 | 45.62458 | 8.67260 | 18461 ft | 275 kts | 114° |
| 2026-05-05 20:51 | 45.61470 | 8.69415 | 17982 ft | 255 kts | 155° |
| 2026-05-05 20:51 | 45.59861 | 8.70023 | 17534 ft | 242 kts | 187° |
| 2026-05-05 20:52 | 45.58207 | 8.69611 | 17079 ft | 243 kts | 196° |
| 2026-05-05 20:52 | 45.56551 | 8.69061 | 16683 ft | 245 kts | 196° |
| 2026-05-05 20:52 | 45.54893 | 8.68510 | 16312 ft | 245 kts | 196° |
| 2026-05-05 20:52 | 45.53237 | 8.67959 | 15958 ft | 244 kts | 196° |
| 2026-05-05 20:53 | 45.51581 | 8.67408 | 15592 ft | 244 kts | 196° |
| 2026-05-05 20:53 | 45.49928 | 8.66858 | 15300 ft | 244 kts | 195° |
| 2026-05-05 20:53 | 45.48233 | 8.66625 | 15004 ft | 247 kts | 181° |
| 2026-05-05 20:53 | 45.46525 | 8.66688 | 14737 ft | 244 kts | 187° |
| 2026-05-05 20:54 | 45.44963 | 8.65924 | 14354 ft | 239 kts | 226° |
| 2026-05-05 20:54 | 45.44298 | 8.63868 | 14130 ft | 236 kts | 267° |
| 2026-05-05 20:54 | 45.44869 | 8.61692 | 13822 ft | 245 kts | 306° |
| 2026-05-05 20:54 | 45.46091 | 8.59984 | 13513 ft | 248 kts | 316° |
| 2026-05-05 20:55 | 45.47482 | 8.58518 | 13215 ft | 249 kts | 322° |
| 2026-05-05 20:55 | 45.48923 | 8.57149 | 12930 ft | 249 kts | 323° |
| 2026-05-05 20:55 | 45.50363 | 8.55786 | 12646 ft | 248 kts | 323° |
| 2026-05-05 20:55 | 45.51842 | 8.54515 | 12266 ft | 253 kts | 335° |
| 2026-05-05 20:56 | 45.53618 | 8.54287 | 12164 ft | 266 kts | 2° |
| 2026-05-05 20:56 | 45.55506 | 8.54703 | 12033 ft | 279 kts | 15° |
| 2026-05-05 20:56 | 45.57140 | 8.56129 | 12003 ft | 279 kts | 41° |
| 2026-05-05 20:56 | 45.58724 | 8.57714 | 11995 ft | 279 kts | 19° |
| 2026-05-05 20:57 | 45.60617 | 8.57945 | 12002 ft | 274 kts | 343° |
| 2026-05-05 20:57 | 45.62284 | 8.56757 | 11999 ft | 267 kts | 313° |
| 2026-05-05 20:57 | 45.63365 | 8.54661 | 12001 ft | 262 kts | 297° |
| 2026-05-05 20:57 | 45.64258 | 8.52397 | 11998 ft | 260 kts | 287° |
| 2026-05-05 20:58 | 45.64369 | 8.49908 | 12002 ft | 251 kts | 251° |
| 2026-05-05 20:58 | 45.63422 | 8.47873 | 12002 ft | 249 kts | 220° |
| 2026-05-05 20:58 | 45.62120 | 8.46237 | 11992 ft | 251 kts | 231° |
| 2026-05-05 20:58 | 45.61504 | 8.43940 | 12000 ft | 255 kts | 267° |
| 2026-05-05 20:59 | 45.61991 | 8.41513 | 12002 ft | 262 kts | 303° |
| 2026-05-05 20:59 | 45.63428 | 8.39910 | 12004 ft | 271 kts | 339° |
| 2026-05-05 20:59 | 45.65304 | 8.39767 | 12005 ft | 277 kts | 14° |
| 2026-05-05 20:59 | 45.66936 | 8.41178 | 12007 ft | 279 kts | 51° |
| 2026-05-05 21:00 | 45.67733 | 8.43645 | 12005 ft | 275 kts | 87° |
| 2026-05-05 21:00 | 45.67434 | 8.46269 | 12005 ft | 267 kts | 119° |
| 2026-05-05 21:00 | 45.66450 | 8.48496 | 12005 ft | 266 kts | 130° |
| 2026-05-05 21:00 | 45.65419 | 8.50696 | 12002 ft | 267 kts | 127° |
| 2026-05-05 21:01 | 45.64303 | 8.52797 | 11999 ft | 264 kts | 139° |
| 2026-05-05 21:01 | 45.62921 | 8.54513 | 12003 ft | 263 kts | 144° |
| 2026-05-05 21:01 | 45.61483 | 8.56113 | 12003 ft | 262 kts | 147° |
| 2026-05-05 21:01 | 45.60012 | 8.57647 | 11932 ft | 264 kts | 148° |
| 2026-05-05 21:02 | 45.58522 | 8.59159 | 11671 ft | 262 kts | 148° |
| 2026-05-05 21:02 | 45.56965 | 8.60448 | 11412 ft | 256 kts | 164° |
| 2026-05-05 21:02 | 45.55234 | 8.60722 | 11161 ft | 249 kts | 189° |
| 2026-05-05 21:02 | 45.53641 | 8.59939 | 10919 ft | 246 kts | 213° |
| 2026-05-05 21:03 | 45.52421 | 8.58263 | 10674 ft | 246 kts | 237° |
| 2026-05-05 21:03 | 45.51650 | 8.56082 | 10414 ft | 246 kts | 240° |
| 2026-05-05 21:03 | 45.50448 | 8.54397 | 10113 ft | 242 kts | 203° |
| 2026-05-05 21:03 | 45.48805 | 8.54050 | 9889 ft | 242 kts | 175° |
| 2026-05-05 21:04 | 45.47191 | 8.54675 | 9641 ft | 248 kts | 155° |
| 2026-05-05 21:04 | 45.45728 | 8.56004 | 9239 ft | 252 kts | 147° |
| 2026-05-05 21:04 | 45.44264 | 8.57403 | 8801 ft | 254 kts | 148° |
| 2026-05-05 21:04 | 45.42800 | 8.58787 | 8467 ft | 250 kts | 149° |
| 2026-05-05 21:05 | 45.41350 | 8.60147 | 7991 ft | 252 kts | 149° |
| 2026-05-05 21:05 | 45.39907 | 8.61499 | 7679 ft | 245 kts | 148° |
| 2026-05-05 21:05 | 45.38951 | 8.62396 | 7389 ft | 244 kts | 148° |
| 2026-05-05 21:05 | 45.37539 | 8.63721 | 6961 ft | 242 kts | 148° |
| 2026-05-05 21:06 | 45.36176 | 8.65001 | 6834 ft | 229 kts | 148° |
| 2026-05-05 21:06 | 45.34798 | 8.66031 | 6711 ft | 220 kts | 162° |
| 2026-05-05 21:06 | 45.33342 | 8.66537 | 6538 ft | 213 kts | 171° |
| 2026-05-05 21:06 | 45.31891 | 8.66930 | 6283 ft | 212 kts | 170° |
| 2026-05-05 21:07 | 45.30451 | 8.67323 | 6068 ft | 209 kts | 170° |
| 2026-05-05 21:07 | 45.29016 | 8.67716 | 6017 ft | 211 kts | 170° |
| 2026-05-05 21:07 | 45.27574 | 8.68112 | 5972 ft | 211 kts | 170° |
| 2026-05-05 21:07 | 45.26130 | 8.68509 | 5921 ft | 211 kts | 170° |
| 2026-05-05 21:08 | 45.24688 | 8.68905 | 5872 ft | 211 kts | 170° |
| 2026-05-05 21:08 | 45.23266 | 8.69297 | 5773 ft | 211 kts | 170° |
| 2026-05-05 21:08 | 45.21824 | 8.69694 | 5657 ft | 211 kts | 170° |
| 2026-05-05 21:08 | 45.20389 | 8.70088 | 5530 ft | 210 kts | 170° |
| 2026-05-05 21:09 | 45.18954 | 8.70482 | 5379 ft | 209 kts | 170° |
| 2026-05-05 21:09 | 45.17527 | 8.70874 | 5258 ft | 209 kts | 169° |
| 2026-05-05 21:09 | 45.16198 | 8.71669 | 5125 ft | 211 kts | 140° |
| 2026-05-05 21:09 | 45.15426 | 8.73422 | 5034 ft | 215 kts | 104° |
| 2026-05-05 21:10 | 45.15517 | 8.75522 | 4979 ft | 219 kts | 71° |
| 2026-05-05 21:10 | 45.16142 | 8.77507 | 4982 ft | 222 kts | 65° |
| 2026-05-05 21:10 | 45.16853 | 8.79445 | 4978 ft | 222 kts | 61° |
| 2026-05-05 21:10 | 45.17941 | 8.80976 | 4980 ft | 224 kts | 26° |
| 2026-05-05 21:11 | 45.19442 | 8.81541 | 4985 ft | 225 kts | 6° |
| 2026-05-05 21:11 | 45.21002 | 8.81772 | 4983 ft | 225 kts | 4° |
| 2026-05-05 21:11 | 45.22563 | 8.81956 | 4984 ft | 225 kts | 4° |
| 2026-05-05 21:11 | 45.24127 | 8.82132 | 5006 ft | 225 kts | 4° |
| 2026-05-05 21:12 | 45.25685 | 8.82298 | 5004 ft | 224 kts | 4° |
| 2026-05-05 21:12 | 45.27240 | 8.82459 | 5005 ft | 224 kts | 4° |
| 2026-05-05 21:12 | 45.28796 | 8.82564 | 5008 ft | 224 kts | 357° |
| 2026-05-05 21:12 | 45.30342 | 8.82309 | 5008 ft | 224 kts | 349° |
| 2026-05-05 21:13 | 45.31873 | 8.81907 | 5006 ft | 224 kts | 348° |
| 2026-05-05 21:13 | 45.33400 | 8.81486 | 5007 ft | 224 kts | 348° |
| 2026-05-05 21:13 | 45.34930 | 8.81067 | 5006 ft | 224 kts | 348° |
| 2026-05-05 21:13 | 45.36458 | 8.80649 | 5011 ft | 224 kts | 348° |
| 2026-05-05 21:14 | 45.37987 | 8.80231 | 5014 ft | 223 kts | 348° |
| 2026-05-05 21:14 | 45.39513 | 8.79813 | 5006 ft | 224 kts | 348° |
| 2026-05-05 21:14 | 45.41024 | 8.79400 | 4816 ft | 222 kts | 348° |
| 2026-05-05 21:14 | 45.42529 | 8.78987 | 4541 ft | 219 kts | 348° |
| 2026-05-05 21:15 | 45.44011 | 8.78581 | 4276 ft | 214 kts | 349° |
| 2026-05-05 21:15 | 45.45449 | 8.78187 | 3966 ft | 208 kts | 349° |
| 2026-05-05 21:15 | 45.46845 | 8.77804 | 3689 ft | 201 kts | 349° |
| 2026-05-05 21:15 | 45.48197 | 8.77433 | 3430 ft | 195 kts | 349° |
| 2026-05-05 21:16 | 45.49509 | 8.77072 | 3172 ft | 189 kts | 349° |
| 2026-05-05 21:16 | 45.50785 | 8.76721 | 2918 ft | 185 kts | 350° |
| 2026-05-05 21:16 | 45.52045 | 8.76375 | 2673 ft | 183 kts | 350° |
| 2026-05-05 21:16 | 45.53292 | 8.76032 | 2429 ft | 182 kts | 350° |
| 2026-05-05 21:17 | 45.54520 | 8.75694 | 2184 ft | 175 kts | 350° |
| 2026-05-05 21:17 | 45.55670 | 8.75377 | 1953 ft | 162 kts | 351° |
| 2026-05-05 21:17 | 45.56742 | 8.75082 | 1740 ft | 152 kts | 351° |
| 2026-05-05 21:17 | 45.57757 | 8.74802 | 1523 ft | 145 kts | 350° |
| 2026-05-05 21:18 | 45.58732 | 8.74532 | 1339 ft | 141 kts | 349° |
| 2026-05-05 21:18 | 45.59684 | 8.74273 | 1123 ft | 138 kts | 349° |
| 2026-05-05 21:18 | 45.60618 | 8.74009 | 956 ft | 137 kts | 348° |
| 2026-05-05 21:18 | 45.61547 | 8.73754 | 803 ft | 136 kts | 349° |
| 2026-05-05 21:19 | 45.62421 | 8.73515 | 746 ft | 111 kts | 349° |
| 2026-05-05 21:19 | 45.62964 | 8.73365 | 744 ft | 44 kts | 347° |
| 2026-05-05 21:19 | 45.63199 | 8.73173 | 749 ft | 32 kts | 316° |
| 2026-05-05 21:19 | 45.63302 | 8.72981 | 750 ft | 17 kts | 303° |
| 2026-05-05 21:20 | 45.63356 | 8.72868 | 752 ft | 10 kts | 304° |
| 2026-05-05 21:20 | 45.63396 | 8.72775 | 750 ft | 12 kts | 293° |
| 2026-05-05 21:20 | 45.63409 | 8.72648 | 752 ft | 14 kts | 262° |
| 2026-05-05 21:20 | 45.63389 | 8.72504 | 748 ft | 16 kts | 259° |
| 2026-05-05 21:21 | 45.63368 | 8.72348 | 750 ft | 14 kts | 259° |
| 2026-05-05 21:21 | 45.63347 | 8.72193 | 747 ft | 15 kts | 259° |
| 2026-05-05 21:21 | 45.63337 | 8.72123 | 749 ft | 0 kts | 258° |
| 2026-05-05 21:22 | 45.63335 | 8.72105 | 749 ft | 5 kts | 259° |
| 2026-05-05 21:22 | 45.63328 | 8.72050 | 749 ft | 6 kts | 259° |
| 2026-05-05 21:22 | 45.63318 | 8.71994 | 751 ft | 6 kts | 244° |
| 2026-05-05 21:23 | 45.63283 | 8.71967 | 749 ft | 5 kts | 182° |
| 2026-05-05 21:23 | 45.63249 | 8.71976 | 752 ft | 6 kts | 170° |
| 2026-05-05 21:23 | 45.63190 | 8.71992 | 752 ft | 11 kts | 168° |
| 2026-05-05 21:23 | 45.63105 | 8.72017 | 752 ft | 12 kts | 168° |
| 2026-05-05 21:24 | 45.63027 | 8.72031 | 749 ft | 11 kts | 192° |
| 2026-05-05 21:24 | 45.62992 | 8.71950 | 752 ft | 10 kts | 258° |
| 2026-05-05 21:24 | 45.62979 | 8.71857 | 752 ft | 9 kts | 259° |
| 2026-05-05 21:24 | 45.62968 | 8.71768 | 751 ft | 9 kts | 257° |
| 2026-05-05 21:25 | 45.62956 | 8.71685 | 749 ft | 8 kts | 259° |
| 2026-05-05 21:25 | 45.62946 | 8.71604 | 753 ft | 8 kts | 259° |
| 2026-05-05 21:25 | 45.62916 | 8.71569 | 753 ft | 6 kts | 168° |
| 2026-05-05 21:25 | 45.62881 | 8.71580 | 750 ft | 5 kts | 168° |
| 2026-05-05 21:26 | 45.62868 | 8.71583 | 753 ft | 0 kts | 169° |